createdAt,value
2018-06-29T00:00:35.037Z,22.03
2018-06-29T00:03:04.429Z,21.92
2018-06-29T00:05:34.133Z,21.90
2018-06-29T00:08:04.387Z,21.87
2018-06-29T00:10:33.712Z,21.94
2018-06-29T00:13:03.859Z,21.91
2018-06-29T00:15:33.146Z,21.79
2018-06-29T00:18:06.380Z,21.88
2018-06-29T00:20:36.683Z,21.88
2018-06-29T00:23:06.502Z,21.83
2018-06-29T00:25:35.880Z,21.81
2018-06-29T00:28:06.509Z,21.68
2018-06-29T00:30:36.150Z,21.59
2018-06-29T00:33:06.097Z,21.55
2018-06-29T00:35:35.412Z,21.38
2018-06-29T00:38:04.800Z,21.39
2018-06-29T00:40:34.141Z,21.53
2018-06-29T00:43:05.100Z,21.38
2018-06-29T00:45:35.187Z,21.43
2018-06-29T00:48:04.578Z,21.25
2018-06-29T00:50:35.299Z,21.22
2018-06-29T00:53:04.653Z,21.20
2018-06-29T00:55:35.598Z,21.24
2018-06-29T00:58:05.407Z,21.20
2018-06-29T01:00:35.351Z,21.21
2018-06-29T01:03:05.800Z,21.20
2018-06-29T01:05:35.434Z,21.30
2018-06-29T01:08:05.478Z,21.27
2018-06-29T01:10:34.782Z,21.38
2018-06-29T01:13:04.440Z,21.44
2018-06-29T01:15:33.781Z,21.40
2018-06-29T01:18:03.614Z,21.36
2018-06-29T01:20:32.927Z,21.39
2018-06-29T01:23:03.071Z,21.07
2018-06-29T01:25:32.727Z,21.02
2018-06-29T01:28:02.068Z,21.06
2018-06-29T01:30:31.415Z,20.98
2018-06-29T01:33:00.732Z,21.02
2018-06-29T01:35:30.083Z,21.03
2018-06-29T01:37:59.514Z,20.80
2018-06-29T01:40:29.545Z,20.81
2018-06-29T01:42:59.199Z,20.77
2018-06-29T01:45:29.224Z,20.67
2018-06-29T01:47:58.529Z,20.79
2018-06-29T01:50:28.168Z,20.77
2018-06-29T01:52:57.767Z,20.67
2018-06-29T01:55:27.480Z,20.66
2018-06-29T01:57:57.229Z,20.67
2018-06-29T02:00:26.567Z,20.70
2018-06-29T02:02:56.347Z,20.77
2018-06-29T02:05:25.708Z,20.77
2018-06-29T02:07:55.500Z,20.67
2018-06-29T02:10:25.376Z,20.65
2018-06-29T02:12:55.750Z,20.49
2018-06-29T02:15:25.105Z,20.64
2018-06-29T02:17:55.215Z,20.60
2018-06-29T02:20:25.487Z,20.64
2018-06-29T02:22:54.805Z,20.54
2018-06-29T02:25:24.387Z,20.44
2018-06-29T02:27:54.169Z,20.39
2018-06-29T02:30:23.522Z,20.53
2018-06-29T02:32:53.714Z,20.44
2018-06-29T02:35:23.317Z,20.42
2018-06-29T02:37:54.051Z,20.48
2018-06-29T02:40:24.412Z,20.41
2018-06-29T02:42:54.153Z,20.51
2018-06-29T02:45:23.464Z,20.52
2018-06-29T02:47:54.173Z,20.36
2018-06-29T02:50:24.032Z,20.22
2018-06-29T02:52:53.368Z,20.41
2018-06-29T02:55:22.662Z,20.34
2018-06-29T02:57:52.303Z,20.34
2018-06-29T03:00:22.309Z,20.40
2018-06-29T03:02:53.357Z,20.28
2018-06-29T03:05:22.782Z,20.01
2018-06-29T03:07:52.664Z,20.00
2018-06-29T03:10:21.981Z,19.98
2018-06-29T03:12:51.639Z,19.93
2018-06-29T03:15:21.363Z,19.97
2018-06-29T03:17:51.513Z,19.92
2018-06-29T03:20:21.256Z,20.07
2018-06-29T03:22:51.027Z,19.95
2018-06-29T03:25:21.091Z,19.98
2018-06-29T03:27:51.616Z,20.11
2018-06-29T03:30:20.930Z,20.05
2018-06-29T03:32:50.287Z,20.07
2018-06-29T03:35:19.621Z,20.00
2018-06-29T03:37:49.379Z,19.89
2018-06-29T03:40:19.361Z,19.94
2018-06-29T03:42:48.645Z,19.98
2018-06-29T03:45:18.355Z,19.97
2018-06-29T03:47:48.127Z,19.95
2018-06-29T03:50:18.379Z,19.99
2018-06-29T03:52:47.711Z,20.07
2018-06-29T03:55:17.150Z,19.88
2018-06-29T03:57:46.500Z,19.92
2018-06-29T04:00:15.787Z,19.90
2018-06-29T04:02:46.564Z,19.87
2018-06-29T04:05:15.885Z,19.83
2018-06-29T04:07:45.244Z,19.73
2018-06-29T04:10:14.669Z,19.76
2018-06-29T04:12:44.686Z,19.77
2018-06-29T04:15:14.011Z,19.70
2018-06-29T04:17:43.391Z,19.72
2018-06-29T04:20:13.115Z,19.77
2018-06-29T04:22:42.801Z,19.84
2018-06-29T04:25:13.029Z,19.86
2018-06-29T04:27:42.370Z,20.00
2018-06-29T04:30:12.090Z,19.92
2018-06-29T04:32:41.664Z,20.03
2018-06-29T04:35:11.583Z,19.90
2018-06-29T04:37:40.876Z,20.07
2018-06-29T04:40:10.627Z,20.06
2018-06-29T04:42:39.945Z,20.00
2018-06-29T04:45:09.563Z,19.85
2018-06-29T04:47:41.375Z,19.88
2018-06-29T04:50:10.823Z,19.90
2018-06-29T04:52:40.117Z,19.79
2018-06-29T04:55:11.390Z,19.93
2018-06-29T04:57:41.125Z,19.72
2018-06-29T05:00:10.884Z,19.82
2018-06-29T05:02:41.237Z,19.80
2018-06-29T05:05:12.185Z,19.68
2018-06-29T05:07:41.467Z,19.63
2018-06-29T05:10:11.226Z,19.77
2018-06-29T05:12:40.518Z,19.76
2018-06-29T05:15:10.908Z,19.78
2018-06-29T05:17:40.681Z,19.96
2018-06-29T05:20:10.425Z,20.16
2018-06-29T05:22:40.082Z,20.20
2018-06-29T05:25:09.443Z,20.30
2018-06-29T05:27:38.809Z,20.41
2018-06-29T05:30:09.341Z,20.37
2018-06-29T05:32:38.820Z,20.33
2018-06-29T05:35:08.468Z,20.43
2018-06-29T05:37:38.340Z,20.52
2018-06-29T05:40:09.305Z,20.63
2018-06-29T05:42:38.895Z,20.69
2018-06-29T05:45:08.663Z,20.91
2018-06-29T05:47:38.420Z,20.92
2018-06-29T05:50:09.379Z,21.14
2018-06-29T05:52:38.744Z,21.18
2018-06-29T05:55:08.719Z,21.32
2018-06-29T05:57:39.467Z,21.47
2018-06-29T06:00:09.193Z,21.57
2018-06-29T06:02:38.513Z,21.64
2018-06-29T06:05:07.873Z,21.67
2018-06-29T06:07:38.432Z,21.71
2018-06-29T06:10:08.064Z,21.77
2018-06-29T06:12:37.707Z,21.70
2018-06-29T06:15:09.379Z,21.93
2018-06-29T06:17:39.009Z,21.83
2018-06-29T06:20:11.567Z,21.99
2018-06-29T06:22:41.357Z,21.92
2018-06-29T06:25:11.296Z,21.92
2018-06-29T06:27:41.451Z,21.98
2018-06-29T06:30:11.636Z,21.94
2018-06-29T06:32:40.996Z,21.95
2018-06-29T06:35:10.681Z,22.08
2018-06-29T06:37:40.429Z,22.09
2018-06-29T06:40:09.780Z,22.20
2018-06-29T06:42:39.493Z,22.30
2018-06-29T06:45:09.219Z,22.32
2018-06-29T06:47:39.276Z,22.47
2018-06-29T06:50:09.848Z,22.51
2018-06-29T06:52:39.583Z,22.56
2018-06-29T06:55:10.053Z,22.72
2018-06-29T06:57:40.873Z,22.83
2018-06-29T07:00:10.211Z,22.92
2018-06-29T07:02:39.614Z,22.72
2018-06-29T07:05:10.212Z,22.90
2018-06-29T07:07:40.553Z,23.11
2018-06-29T07:10:10.008Z,23.18
2018-06-29T07:12:39.514Z,23.37
2018-06-29T07:15:10.558Z,23.41
2018-06-29T07:17:39.908Z,23.47
2018-06-29T07:20:09.889Z,23.53
2018-06-29T07:22:39.945Z,23.63
2018-06-29T07:25:10.232Z,23.58
2018-06-29T07:27:39.586Z,23.77
2018-06-29T07:30:09.765Z,23.76
2018-06-29T07:32:39.142Z,23.88
2018-06-29T07:35:08.843Z,24.07
2018-06-29T07:37:38.212Z,24.19
2018-06-29T07:40:07.589Z,24.37
2018-06-29T07:42:38.679Z,24.25
2018-06-29T07:45:09.365Z,24.36
2018-06-29T07:47:40.072Z,24.34
2018-06-29T07:50:10.139Z,24.52
2018-06-29T07:52:39.516Z,24.45
2018-06-29T07:55:09.847Z,24.49
2018-06-29T07:57:40.760Z,24.62
2018-06-29T08:00:10.114Z,24.74
2018-06-29T08:02:40.466Z,24.78
2018-06-29T08:05:10.720Z,24.79
2018-06-29T08:07:43.648Z,24.92
2018-06-29T08:10:15.183Z,24.98
2018-06-29T08:12:46.064Z,25.07
2018-06-29T08:15:15.771Z,25.15
2018-06-29T08:17:45.628Z,25.24
2018-06-29T08:20:14.956Z,25.45
2018-06-29T08:22:44.673Z,25.40
2018-06-29T08:25:15.462Z,25.40
2018-06-29T08:27:45.417Z,25.36
2018-06-29T08:30:15.205Z,25.49
2018-06-29T08:32:44.754Z,25.58
2018-06-29T08:35:14.482Z,25.57
2018-06-29T08:37:44.685Z,25.74
2018-06-29T08:40:14.217Z,25.72
2018-06-29T08:42:43.892Z,25.99
2018-06-29T08:45:14.744Z,25.89
2018-06-29T08:47:44.978Z,25.99
2018-06-29T08:50:14.325Z,26.18
2018-06-29T08:52:43.661Z,26.21
2018-06-29T08:55:13.028Z,26.27
2018-06-29T08:57:43.283Z,26.30
2018-06-29T09:00:12.649Z,26.32
2018-06-29T09:02:42.268Z,26.53
2018-06-29T09:05:11.893Z,26.56
2018-06-29T09:07:41.562Z,26.55
2018-06-29T09:10:11.250Z,26.56
2018-06-29T09:12:41.230Z,26.75
2018-06-29T09:15:10.976Z,26.98
2018-06-29T09:17:41.098Z,26.42
2018-06-29T09:20:10.435Z,26.88
2018-06-29T09:22:39.800Z,26.80
2018-06-29T09:25:09.415Z,26.95
2018-06-29T09:27:39.361Z,26.97
2018-06-29T09:30:08.983Z,27.19
2018-06-29T09:32:38.321Z,27.29
2018-06-29T09:35:07.691Z,27.20
2018-06-29T09:37:37.322Z,27.36
2018-06-29T09:40:06.941Z,27.60
2018-06-29T09:42:36.353Z,27.45
2018-06-29T09:45:06.097Z,27.37
2018-06-29T09:47:35.748Z,27.61
2018-06-29T09:50:05.189Z,27.88
2018-06-29T09:52:34.920Z,27.88
2018-06-29T09:55:04.327Z,27.88
2018-06-29T09:57:33.997Z,27.95
2018-06-29T10:00:03.423Z,28.50
2018-06-29T10:02:39.275Z,28.22
2018-06-29T10:05:02.356Z,28.11
2018-06-29T10:07:31.696Z,28.40
2018-06-29T10:10:01.559Z,28.52
2018-06-29T10:12:30.885Z,28.86
2018-06-29T10:15:00.389Z,28.77
2018-06-29T10:17:30.018Z,28.76
2018-06-29T10:19:59.718Z,29.05
2018-06-29T10:22:29.077Z,28.78
2018-06-29T10:24:58.356Z,28.59
2018-06-29T10:27:27.714Z,28.75
2018-06-29T10:29:57.321Z,29.13
2018-06-29T10:32:27.701Z,29.50
2018-06-29T10:34:57.679Z,29.35
2018-06-29T10:37:27.339Z,29.41
2018-06-29T10:39:56.663Z,29.35
2018-06-29T10:42:26.536Z,29.59
2018-06-29T10:44:56.362Z,29.54
2018-06-29T10:47:25.653Z,30.06
2018-06-29T10:49:54.959Z,30.30
2018-06-29T10:52:24.628Z,30.09
2018-06-29T10:54:54.250Z,30.11
2018-06-29T10:57:24.663Z,29.71
2018-06-29T10:59:54.377Z,29.88
2018-06-29T11:02:24.064Z,30.20
2018-06-29T11:04:53.422Z,30.27
2018-06-29T11:07:22.729Z,30.46
2018-06-29T11:09:52.077Z,30.58
2018-06-29T11:12:21.437Z,31.04
2018-06-29T11:14:50.805Z,31.02
2018-06-29T11:17:20.192Z,30.80
2018-06-29T11:19:49.510Z,30.95
2018-06-29T11:22:20.035Z,31.11
2018-06-29T11:24:49.365Z,30.98
2018-06-29T11:27:18.680Z,31.40
2018-06-29T11:29:49.618Z,31.34
2018-06-29T11:32:19.204Z,31.34
2018-06-29T11:34:48.608Z,31.23
2018-06-29T11:37:18.374Z,31.79
2018-06-29T11:39:47.707Z,31.90
2018-06-29T11:42:17.515Z,31.86
2018-06-29T11:44:48.274Z,31.30
2018-06-29T11:47:17.904Z,30.74
2018-06-29T11:49:47.624Z,31.65
2018-06-29T11:52:17.192Z,31.59
2018-06-29T11:54:47.040Z,31.79
2018-06-29T11:57:16.350Z,31.57
2018-06-29T11:59:46.072Z,32.05
2018-06-29T12:02:15.393Z,32.13
2018-06-29T12:04:45.576Z,32.53
2018-06-29T12:07:14.987Z,32.10
2018-06-29T12:09:44.815Z,32.75
2018-06-29T12:12:15.185Z,32.37
2018-06-29T12:14:45.176Z,32.55
2018-06-29T12:17:14.464Z,32.15
2018-06-29T12:19:43.825Z,32.94
2018-06-29T12:22:13.372Z,33.08
2018-06-29T12:24:43.156Z,32.66
2018-06-29T12:27:12.786Z,32.75
2018-06-29T12:29:42.774Z,32.66
2018-06-29T12:32:12.480Z,33.06
2018-06-29T12:34:42.091Z,33.02
2018-06-29T12:37:11.390Z,32.73
2018-06-29T12:39:41.107Z,33.14
2018-06-29T12:42:10.901Z,33.61
2018-06-29T12:44:40.234Z,33.63
2018-06-29T12:47:09.906Z,33.76
2018-06-29T12:49:39.204Z,33.48
2018-06-29T12:52:08.559Z,33.37
2018-06-29T12:54:43.442Z,33.97
2018-06-29T12:57:15.183Z,33.86
2018-06-29T12:59:44.452Z,34.10
2018-06-29T13:02:13.776Z,33.88
2018-06-29T13:04:43.146Z,33.84
2018-06-29T13:07:12.451Z,33.55
2018-06-29T13:09:42.333Z,33.19
2018-06-29T13:12:11.706Z,33.18
2018-06-29T13:14:41.021Z,34.09
2018-06-29T13:17:10.394Z,33.59
2018-06-29T13:19:41.192Z,34.14
2018-06-29T13:22:10.547Z,34.64
2018-06-29T13:24:39.856Z,34.04
2018-06-29T13:27:09.884Z,34.62
2018-06-29T13:29:39.215Z,33.69
2018-06-29T13:32:08.622Z,34.55
2018-06-29T13:34:39.424Z,34.90
2018-06-29T13:37:09.258Z,34.81
2018-06-29T13:39:38.567Z,34.41
2018-06-29T13:42:08.228Z,34.56
2018-06-29T13:44:38.457Z,34.49
2018-06-29T13:47:08.965Z,34.05
2018-06-29T13:49:38.344Z,34.66
2018-06-29T13:52:08.426Z,35.13
2018-06-29T13:54:39.335Z,35.47
2018-06-29T13:57:09.041Z,34.94
2018-06-29T13:59:39.053Z,34.44
2018-06-29T14:02:08.641Z,34.77
2018-06-29T14:04:38.079Z,35.05
2018-06-29T14:07:07.476Z,35.19
2018-06-29T14:09:37.225Z,35.39
2018-06-29T14:12:06.553Z,35.53
2018-06-29T14:14:36.317Z,35.05
2018-06-29T14:17:06.399Z,35.24
2018-06-29T14:19:36.712Z,35.02
2018-06-29T14:22:06.323Z,35.40
2018-06-29T14:24:36.581Z,35.74
2018-06-29T14:27:06.420Z,34.70
2018-06-29T14:29:35.908Z,34.67
2018-06-29T14:32:05.524Z,34.51
2018-06-29T14:34:36.053Z,34.75
2018-06-29T14:37:06.454Z,35.82
2018-06-29T14:39:37.517Z,35.75
2018-06-29T14:42:07.198Z,35.96
2018-06-29T14:44:36.860Z,35.98
2018-06-29T14:47:06.219Z,36.55
2018-06-29T14:49:36.319Z,36.74
2018-06-29T14:52:06.025Z,37.12
2018-06-29T14:54:36.039Z,36.71
2018-06-29T14:57:05.841Z,36.90
2018-06-29T14:59:35.212Z,36.93
2018-06-29T15:02:04.600Z,36.11
2018-06-29T15:04:34.290Z,36.01
2018-06-29T15:07:03.900Z,36.17
2018-06-29T15:09:33.351Z,36.45
2018-06-29T15:12:02.664Z,35.99
2018-06-29T15:14:32.052Z,36.02
2018-06-29T15:17:01.560Z,35.72
2018-06-29T15:19:32.330Z,35.39
2018-06-29T15:22:02.001Z,35.51
2018-06-29T15:24:31.773Z,35.93
2018-06-29T15:27:01.376Z,36.11
2018-06-29T15:29:31.176Z,36.85
2018-06-29T15:32:01.313Z,36.56
2018-06-29T15:34:31.090Z,37.17
2018-06-29T15:37:00.824Z,36.89
2018-06-29T15:39:30.163Z,36.21
2018-06-29T15:42:01.636Z,35.70
2018-06-29T15:44:31.277Z,36.38
2018-06-29T15:47:00.641Z,35.92
2018-06-29T15:49:30.000Z,36.16
2018-06-29T15:51:59.644Z,35.76
2018-06-29T15:54:28.986Z,35.93
2018-06-29T15:56:58.352Z,35.56
2018-06-29T15:59:27.693Z,35.28
2018-06-29T16:01:57.023Z,35.49
2018-06-29T16:04:26.663Z,35.65
2018-06-29T16:06:56.092Z,36.23
2018-06-29T16:09:25.355Z,36.71
2018-06-29T16:11:54.688Z,37.06
2018-06-29T16:14:24.404Z,37.16
2018-06-29T16:16:54.055Z,36.77
2018-06-29T16:19:23.571Z,36.79
2018-06-29T16:21:54.526Z,37.46
2018-06-29T16:24:24.209Z,36.82
2018-06-29T16:26:53.552Z,36.65
2018-06-29T16:29:24.950Z,36.84
2018-06-29T16:31:55.307Z,36.42
2018-06-29T16:34:24.692Z,36.97
2018-06-29T16:36:54.020Z,36.85
2018-06-29T16:39:23.586Z,36.57
2018-06-29T16:41:54.429Z,36.15
2018-06-29T16:44:24.299Z,36.47
2018-06-29T16:46:53.805Z,36.51
2018-06-29T16:49:23.586Z,36.53
2018-06-29T16:51:55.994Z,37.13
2018-06-29T16:54:25.743Z,37.04
2018-06-29T16:56:55.085Z,36.47
2018-06-29T16:59:24.471Z,36.35
2018-06-29T17:01:54.147Z,36.75
2018-06-29T17:04:24.168Z,36.18
2018-06-29T17:06:54.443Z,35.73
2018-06-29T17:09:24.065Z,36.29
2018-06-29T17:11:53.920Z,35.73
2018-06-29T17:14:23.908Z,35.95
2018-06-29T17:16:53.344Z,35.93
2018-06-29T17:19:22.697Z,35.31
2018-06-29T17:21:52.297Z,35.35
2018-06-29T17:24:22.262Z,34.66
2018-06-29T17:26:51.633Z,34.53
2018-06-29T17:29:21.003Z,33.82
2018-06-29T17:31:50.734Z,34.10
2018-06-29T17:34:21.362Z,34.50
2018-06-29T17:36:51.440Z,34.72
2018-06-29T17:39:20.753Z,34.67
2018-06-29T17:41:50.412Z,34.81
2018-06-29T17:44:20.122Z,34.56
2018-06-29T17:46:50.520Z,34.67
2018-06-29T17:49:19.868Z,34.94
2018-06-29T17:51:49.245Z,34.92
2018-06-29T17:54:18.874Z,34.67
2018-06-29T17:56:49.576Z,33.89
2018-06-29T17:59:18.919Z,33.22
2018-06-29T18:01:48.545Z,33.21
2018-06-29T18:04:18.170Z,33.49
2018-06-29T18:06:48.022Z,32.88
2018-06-29T18:09:17.659Z,33.37
2018-06-29T18:11:47.299Z,33.38
2018-06-29T18:14:17.007Z,33.47
2018-06-29T18:16:46.881Z,33.35
2018-06-29T18:19:16.256Z,33.35
2018-06-29T18:21:45.987Z,32.41
2018-06-29T18:24:15.341Z,32.18
2018-06-29T18:26:44.651Z,32.39
2018-06-29T18:29:14.704Z,31.85
2018-06-29T18:31:44.046Z,32.11
2018-06-29T18:34:13.767Z,32.06
2018-06-29T18:36:44.495Z,32.09
2018-06-29T18:39:15.982Z,32.11
2018-06-29T18:41:46.225Z,32.11
2018-06-29T18:44:15.872Z,31.82
2018-06-29T18:46:45.239Z,31.76
2018-06-29T18:49:14.612Z,31.79
2018-06-29T18:51:44.176Z,31.76
2018-06-29T18:54:13.520Z,31.73
2018-06-29T18:56:43.344Z,31.46
2018-06-29T18:59:13.050Z,31.53
2018-06-29T19:01:43.126Z,31.29
2018-06-29T19:04:12.456Z,31.19
2018-06-29T19:06:42.041Z,30.68
2018-06-29T19:09:12.214Z,30.54
2018-06-29T19:11:42.961Z,30.48
2018-06-29T19:14:12.637Z,30.32
2018-06-29T19:16:42.317Z,30.43
2018-06-29T19:19:12.158Z,30.27
2018-06-29T19:21:42.091Z,30.16
2018-06-29T19:24:12.280Z,29.98
2018-06-29T19:26:41.620Z,29.75
2018-06-29T19:29:10.951Z,29.63
2018-06-29T19:31:40.581Z,29.42
2018-06-29T19:34:10.152Z,29.22
2018-06-29T19:36:39.782Z,29.32
2018-06-29T19:39:10.255Z,28.97
2018-06-29T19:41:40.763Z,28.79
2018-06-29T19:44:11.472Z,28.75
2018-06-29T19:46:41.351Z,28.60
2018-06-29T19:49:12.040Z,28.56
2018-06-29T19:51:41.660Z,28.45
2018-06-29T19:54:11.092Z,28.39
2018-06-29T19:56:40.448Z,28.50
2018-06-29T19:59:10.180Z,28.29
2018-06-29T20:01:40.321Z,28.17
2018-06-29T20:04:09.654Z,28.19
2018-06-29T20:06:39.268Z,27.97
2018-06-29T20:09:11.128Z,27.84
2018-06-29T20:11:41.526Z,27.77
2018-06-29T20:14:12.897Z,27.54
2018-06-29T20:16:42.326Z,27.60
2018-06-29T20:19:11.833Z,27.12
2018-06-29T20:21:41.835Z,27.08
2018-06-29T20:24:11.159Z,27.27
2018-06-29T20:26:41.801Z,27.16
2018-06-29T20:29:11.124Z,27.15
2018-06-29T20:31:41.402Z,27.15
2018-06-29T20:34:11.200Z,27.07
2018-06-29T20:36:41.889Z,26.83
2018-06-29T20:39:12.699Z,26.62
2018-06-29T20:41:42.540Z,26.51
2018-06-29T20:44:12.286Z,26.63
2018-06-29T20:46:41.629Z,26.24
2018-06-29T20:49:10.971Z,26.31
2018-06-29T20:51:40.367Z,26.39
2018-06-29T20:54:09.996Z,26.41
2018-06-29T20:56:39.416Z,26.35
2018-06-29T20:59:08.804Z,26.30
2018-06-29T21:01:38.373Z,26.14
2018-06-29T21:04:07.929Z,26.16
2018-06-29T21:06:37.286Z,26.07
2018-06-29T21:09:08.429Z,25.88
2018-06-29T21:11:38.111Z,25.80
2018-06-29T21:14:07.440Z,25.80
2018-06-29T21:16:37.264Z,25.69
2018-06-29T21:19:07.326Z,25.75
2018-06-29T21:21:36.680Z,25.53
2018-06-29T21:24:06.461Z,25.43
2018-06-29T21:26:37.859Z,25.36
2018-06-29T21:29:07.718Z,25.41
2018-06-29T21:31:37.799Z,25.58
2018-06-29T21:34:07.645Z,25.27
2018-06-29T21:36:37.722Z,25.15
2018-06-29T21:39:08.600Z,25.06
2018-06-29T21:41:38.867Z,24.94
2018-06-29T21:44:10.279Z,24.90
2018-06-29T21:46:39.975Z,24.77
2018-06-29T21:49:09.359Z,24.73
2018-06-29T21:51:38.800Z,24.77
2018-06-29T21:54:08.524Z,24.65
2018-06-29T21:56:37.897Z,24.51
2018-06-29T21:59:08.037Z,24.48
2018-06-29T22:01:37.614Z,24.46
2018-06-29T22:04:07.131Z,24.58
2018-06-29T22:06:36.887Z,24.50
2018-06-29T22:09:08.146Z,24.65
2018-06-29T22:11:37.474Z,24.47
2018-06-29T22:14:07.318Z,24.42
2018-06-29T22:16:36.754Z,24.56
2018-06-29T22:19:06.512Z,24.21
2018-06-29T22:21:35.860Z,24.15
2018-06-29T22:24:05.356Z,24.10
2018-06-29T22:26:34.668Z,24.16
2018-06-29T22:29:04.034Z,23.93
2018-06-29T22:31:34.373Z,24.03
2018-06-29T22:34:03.800Z,24.09
2018-06-29T22:36:33.224Z,24.08
2018-06-29T22:39:04.037Z,23.95
2018-06-29T22:41:33.467Z,23.91
2018-06-29T22:44:02.863Z,23.86
2018-06-29T22:46:32.456Z,24.05
2018-06-29T22:49:02.141Z,24.06
2018-06-29T22:51:32.456Z,23.78
2018-06-29T22:54:01.829Z,23.68
2018-06-29T22:56:31.987Z,23.23
2018-06-29T22:59:01.428Z,23.12
2018-06-29T23:01:30.784Z,22.92
2018-06-29T23:04:01.033Z,22.84
2018-06-29T23:06:30.717Z,22.87
2018-06-29T23:09:00.155Z,22.85
2018-06-29T23:11:30.017Z,22.88
2018-06-29T23:13:59.398Z,22.79
2018-06-29T23:16:29.117Z,23.09
2018-06-29T23:18:58.438Z,23.09
2018-06-29T23:21:28.391Z,22.54
2018-06-29T23:23:58.019Z,22.56
2018-06-29T23:26:27.427Z,23.01
2018-06-29T23:28:56.753Z,22.83
2018-06-29T23:31:26.854Z,23.14
2018-06-29T23:33:56.380Z,22.96
2018-06-29T23:36:26.752Z,22.85
2018-06-29T23:38:56.501Z,22.76
2018-06-29T23:41:26.772Z,22.84
2018-06-29T23:43:56.481Z,22.73
2018-06-29T23:46:25.841Z,22.81
2018-06-29T23:48:55.212Z,22.72
2018-06-29T23:51:24.574Z,22.39
2018-06-29T23:53:54.760Z,22.61
2018-06-29T23:58:53.643Z,22.26
